createdAt,value
2022-11-04T00:00:17.176Z,96100.84
2022-11-04T00:03:20.176Z,96098.84
2022-11-04T00:06:23.074Z,96107.13
2022-11-04T00:09:27.553Z,96103.47
2022-11-04T00:12:30.695Z,96107.53
2022-11-04T00:15:55.235Z,96106.75
2022-11-04T00:18:58.347Z,96100.41
2022-11-04T00:22:18.814Z,96099.25
2022-11-04T00:28:46.147Z,96076.34
2022-11-04T00:32:06.558Z,96074.91
2022-11-04T00:35:11.068Z,96092.56
2022-11-04T00:38:13.950Z,96099.63
2022-11-04T00:41:30.144Z,96098.81
2022-11-04T00:44:34.761Z,96103.47
2022-11-04T00:47:37.631Z,96121.06
2022-11-04T00:50:40.707Z,96105.19
2022-11-04T00:53:43.808Z,96047.63
2022-11-04T00:56:48.497Z,96019.13
2022-11-04T00:59:52.764Z,96009.06
2022-11-04T01:02:56.972Z,96020.94
2022-11-04T01:05:59.921Z,96084.09
2022-11-04T01:09:05.495Z,96128.03
2022-11-04T01:12:08.366Z,96134.28
2022-11-04T01:15:12.911Z,96163.34
2022-11-04T01:18:15.769Z,96159.97
2022-11-04T01:21:18.896Z,96165.06
2022-11-04T01:24:22.128Z,96173.16
2022-11-04T01:27:24.960Z,96161.06
2022-11-04T01:30:29.181Z,96165.94
2022-11-04T01:33:32.075Z,96171.59
2022-11-04T01:36:34.962Z,96177.31
2022-11-04T01:39:37.844Z,96182.56
2022-11-04T01:42:40.689Z,96185.59
2022-11-04T01:45:48.938Z,96184.19
2022-11-04T01:48:53.291Z,96181.94
2022-11-04T01:52:02.065Z,96192.47
2022-11-04T01:55:10.672Z,96192.03
2022-11-04T01:58:18.490Z,96199.94
2022-11-04T02:01:22.861Z,96209.25
2022-11-04T02:04:30.105Z,96205.19
2022-11-04T02:07:33.622Z,96207.81
2022-11-04T02:10:37.626Z,96210.00
2022-11-04T02:13:39.520Z,96224.81
2022-11-04T02:16:46.388Z,96221.38
2022-11-04T02:20:09.944Z,96219.34
2022-11-04T02:23:57.492Z,96219.16
2022-11-04T02:27:27.976Z,96219.75
2022-11-04T02:30:38.144Z,96226.81
2022-11-04T02:33:47.927Z,96224.97
2022-11-04T02:36:59.886Z,96234.69
2022-11-04T02:40:13.424Z,96229.41
2022-11-04T02:43:24.960Z,96223.38
2022-11-04T02:46:35.910Z,96229.03
2022-11-04T02:49:46.619Z,96227.41
2022-11-04T02:52:57.629Z,96226.59
2022-11-04T02:56:03.379Z,96232.66
2022-11-04T02:59:11.410Z,96232.78
2022-11-04T03:02:20.415Z,96214.72
2022-11-04T03:05:29.425Z,96213.06
2022-11-04T03:08:35.927Z,96196.47
2022-11-04T03:11:42.074Z,96198.06
2022-11-04T03:14:55.700Z,96194.00
2022-11-04T03:18:08.091Z,96183.59
2022-11-04T03:21:14.132Z,96183.75
2022-11-04T03:24:17.161Z,96183.78
2022-11-04T03:27:26.283Z,96190.69
2022-11-04T03:30:40.280Z,96184.72
2022-11-04T03:33:48.749Z,96189.59
2022-11-04T03:36:51.833Z,96198.53
2022-11-04T03:39:54.911Z,96207.97
2022-11-04T03:43:01.998Z,96214.03
2022-11-04T03:46:05.197Z,96213.47
2022-11-04T03:49:11.173Z,96222.63
2022-11-04T03:52:14.906Z,96237.69
2022-11-04T03:55:18.063Z,96257.78
2022-11-04T03:58:31.511Z,96270.13
2022-11-04T04:01:45.572Z,96279.09
2022-11-04T04:04:58.069Z,96287.41
2022-11-04T04:08:15.338Z,96304.88
2022-11-04T04:11:24.486Z,96317.84
2022-11-04T04:14:42.654Z,96334.06
2022-11-04T04:17:52.091Z,96352.72
2022-11-04T04:20:59.940Z,96370.75
2022-11-04T04:24:25.129Z,96377.63
2022-11-04T04:27:33.885Z,96395.22
2022-11-04T04:30:37.366Z,96407.19
2022-11-04T04:33:40.403Z,96408.41
2022-11-04T04:36:48.366Z,96429.47
2022-11-04T04:40:20.876Z,96440.41
2022-11-04T04:43:41.549Z,96461.44
2022-11-04T04:46:46.467Z,96469.13
2022-11-04T04:49:52.216Z,96474.38
2022-11-04T04:52:59.372Z,96481.69
2022-11-04T04:56:02.349Z,96481.66
2022-11-04T04:59:05.525Z,96477.41
2022-11-04T05:02:08.502Z,96480.47
2022-11-04T05:05:11.993Z,96487.34
2022-11-04T05:08:16.518Z,96492.59
2022-11-04T05:11:24.288Z,96487.34
2022-11-04T05:14:29.812Z,96490.59
2022-11-04T05:17:32.657Z,96482.91
2022-11-04T05:20:38.494Z,96494.66
2022-11-04T05:23:42.720Z,96502.53
2022-11-04T05:26:45.538Z,96503.56
2022-11-04T05:29:48.370Z,96501.09
2022-11-04T05:32:51.235Z,96505.16
2022-11-04T05:35:54.276Z,96509.00
2022-11-04T05:38:58.541Z,96497.47
2022-11-04T05:42:02.089Z,96502.72
2022-11-04T05:45:05.588Z,96503.97
2022-11-04T05:48:08.497Z,96503.16
2022-11-04T05:51:14.234Z,96492.00
2022-11-04T05:54:18.414Z,96491.78
2022-11-04T05:57:21.326Z,96489.97
2022-11-04T06:00:24.368Z,96485.31
2022-11-04T06:03:27.282Z,96474.19
2022-11-04T06:06:32.447Z,96475.63
2022-11-04T06:09:42.306Z,96473.00
2022-11-04T06:12:45.215Z,96469.94
2022-11-04T06:15:48.066Z,96461.81
2022-11-04T06:18:50.990Z,96460.81
2022-11-04T06:21:53.910Z,96476.00
2022-11-04T06:24:58.143Z,96467.69
2022-11-04T06:28:00.989Z,96477.22
2022-11-04T06:31:05.949Z,96476.81
2022-11-04T06:34:09.999Z,96465.03
2022-11-04T06:37:13.539Z,96482.41
2022-11-04T06:40:17.929Z,96488.13
2022-11-04T06:43:20.888Z,96493.75
2022-11-04T06:46:29.287Z,96509.59
2022-11-04T06:49:32.289Z,96523.94
2022-11-04T06:52:41.011Z,96511.63
2022-11-04T06:55:46.736Z,96513.41
2022-11-04T06:58:50.211Z,96519.06
2022-11-04T07:01:53.203Z,96512.75
2022-11-04T07:07:58.795Z,96522.28
2022-11-04T07:11:04.096Z,96540.28
2022-11-04T07:14:08.913Z,96555.50
2022-11-04T07:17:11.956Z,96568.50
2022-11-04T07:20:15.061Z,96576.81
2022-11-04T07:23:17.854Z,96572.75
2022-11-04T07:26:22.739Z,96568.91
2022-11-04T07:29:25.810Z,96572.72
2022-11-04T07:32:29.002Z,96573.91
2022-11-04T07:35:32.081Z,96586.06
2022-11-04T07:38:35.374Z,96584.47
2022-11-04T07:41:39.676Z,96590.13
2022-11-04T07:44:42.896Z,96594.16
2022-11-04T07:47:45.840Z,96597.00
2022-11-04T07:50:48.786Z,96594.50
2022-11-04T07:53:51.887Z,96585.41
2022-11-04T07:56:56.126Z,96577.47
2022-11-04T07:59:59.572Z,96598.28
2022-11-04T08:03:02.767Z,96620.38
2022-11-04T08:06:08.508Z,96640.41
2022-11-04T08:09:11.421Z,96635.94
2022-11-04T08:12:15.675Z,96639.34
2022-11-04T08:15:18.761Z,96647.84
2022-11-04T08:18:21.647Z,96658.41
2022-11-04T08:21:24.520Z,96664.41
2022-11-04T08:24:27.396Z,96652.25
2022-11-04T08:27:31.640Z,96639.88
2022-11-04T08:30:34.797Z,96652.66
2022-11-04T08:33:37.890Z,96639.28
2022-11-04T08:36:43.046Z,96640.50
2022-11-04T08:39:45.963Z,96654.22
2022-11-04T08:42:50.183Z,96636.03
2022-11-04T08:45:54.120Z,96643.31
2022-11-04T08:48:57.035Z,96656.66
2022-11-04T08:52:00.662Z,96666.78
2022-11-04T08:55:03.490Z,96692.72
2022-11-04T08:58:08.220Z,96698.19
2022-11-04T09:01:12.777Z,96707.66
2022-11-04T09:04:15.732Z,96703.22
2022-11-04T09:07:18.698Z,96687.41
2022-11-04T09:10:21.917Z,96684.81
2022-11-04T09:13:26.278Z,96683.59
2022-11-04T09:16:29.970Z,96679.16
2022-11-04T09:19:32.874Z,96685.81
2022-11-04T09:22:35.694Z,96691.69
2022-11-04T09:25:39.019Z,96710.09
2022-11-04T09:28:43.897Z,96713.50
2022-11-04T09:31:46.747Z,96725.00
2022-11-04T09:34:49.640Z,96724.00
2022-11-04T09:37:52.459Z,96728.25
2022-11-04T09:40:55.364Z,96731.31
2022-11-04T09:44:05.632Z,96727.06
2022-11-04T09:47:12.043Z,96736.63
2022-11-04T09:50:22.533Z,96751.41
2022-11-04T09:53:31.678Z,96755.84
2022-11-04T09:56:37.975Z,96765.19
2022-11-04T09:59:42.280Z,96766.81
2022-11-04T10:02:56.189Z,96764.53
2022-11-04T10:06:12.359Z,96774.69
2022-11-04T10:09:28.329Z,96778.34
2022-11-04T10:12:54.477Z,96775.22
2022-11-04T10:16:20.043Z,96778.22
2022-11-04T10:19:36.893Z,96787.16
2022-11-04T10:22:52.818Z,96789.00
2022-11-04T10:26:00.185Z,96798.88
2022-11-04T10:29:07.009Z,96795.94
2022-11-04T10:32:22.271Z,96793.44
2022-11-04T10:35:33.437Z,96801.78
2022-11-04T10:38:40.345Z,96796.47
2022-11-04T10:41:43.482Z,96795.28
2022-11-04T10:44:47.890Z,96799.16
2022-11-04T10:47:59.123Z,96801.38
2022-11-04T10:51:02.119Z,96800.47
2022-11-04T10:54:09.929Z,96797.75
2022-11-04T10:57:17.638Z,96792.34
2022-11-04T11:00:38.481Z,96785.47
2022-11-04T11:03:42.771Z,96767.13
2022-11-04T11:06:51.587Z,96761.81
2022-11-04T11:09:57.062Z,96752.88
2022-11-04T11:13:03.406Z,96744.88
2022-11-04T11:16:10.593Z,96742.09
2022-11-04T11:19:20.297Z,96743.34
2022-11-04T11:22:36.903Z,96747.91
2022-11-04T11:25:45.628Z,96756.41
2022-11-04T11:28:58.394Z,96755.72
2022-11-04T11:32:01.906Z,96748.47
2022-11-04T11:35:16.708Z,96760.47
2022-11-04T11:38:23.041Z,96781.56
2022-11-04T11:41:31.642Z,96781.06
2022-11-04T11:44:38.798Z,96770.50
2022-11-04T11:47:43.714Z,96764.84
2022-11-04T11:50:58.731Z,96765.47
2022-11-04T11:54:24.515Z,96763.84
2022-11-04T11:57:43.157Z,96762.34
2022-11-04T12:00:54.640Z,96755.28
2022-11-04T12:11:08.519Z,96753.97
2022-11-04T12:14:18.557Z,96745.09
2022-11-04T12:17:36.976Z,96733.63
2022-11-04T12:20:50.172Z,96720.75
2022-11-04T12:23:56.846Z,96696.19
2022-11-04T12:27:12.942Z,96688.56
2022-11-04T12:30:21.255Z,96675.78
2022-11-04T12:33:36.830Z,96671.78
2022-11-04T12:36:54.834Z,96673.03
2022-11-04T12:40:18.903Z,96685.16
2022-11-04T12:43:29.302Z,96692.53
2022-11-04T12:46:41.816Z,96692.53
2022-11-04T12:49:56.477Z,96688.13
2022-11-04T12:53:28.165Z,96691.94
2022-11-04T12:56:38.520Z,96675.59
2022-11-04T12:59:53.454Z,96675.84
2022-11-04T13:03:02.266Z,96673.69
2022-11-04T13:06:10.370Z,96673.22
2022-11-04T13:09:18.038Z,96668.56
2022-11-04T13:12:25.287Z,96677.47
2022-11-04T13:15:31.793Z,96677.22
2022-11-04T13:18:38.616Z,96672.34
2022-11-04T13:21:41.666Z,96666.00
2022-11-04T13:24:50.426Z,96655.72
2022-11-04T13:31:47.330Z,96658.34
2022-11-04T13:35:01.080Z,96652.47
2022-11-04T13:38:09.035Z,96656.72
2022-11-04T13:41:33.695Z,96648.09
2022-11-04T13:44:40.455Z,96635.78
2022-11-04T13:47:50.447Z,96627.13
2022-11-04T13:51:02.324Z,96613.38
2022-11-04T13:54:06.457Z,96597.22
2022-11-04T13:57:13.823Z,96591.53
2022-11-04T14:00:24.385Z,96597.63
2022-11-04T14:03:41.754Z,96602.09
2022-11-04T14:06:52.323Z,96597.22
2022-11-04T14:09:56.550Z,96592.78
2022-11-04T14:13:45.175Z,96590.72
2022-11-04T14:16:48.128Z,96594.75
2022-11-04T14:19:59.793Z,96597.66
2022-11-04T14:23:05.918Z,96599.09
2022-11-04T14:26:11.750Z,96599.44
2022-11-04T14:29:19.391Z,96605.94
2022-11-04T14:32:27.337Z,96608.53
2022-11-04T14:35:31.488Z,96612.03
2022-11-04T14:38:35.883Z,96618.53
2022-11-04T14:41:57.728Z,96619.56
2022-11-04T14:45:01.949Z,96625.44
2022-11-04T14:48:16.008Z,96617.16
2022-11-04T14:51:26.185Z,96616.72
2022-11-04T14:54:34.081Z,96618.28
2022-11-04T14:57:39.010Z,96623.94
2022-11-04T15:00:53.901Z,96628.44
2022-11-04T15:04:15.483Z,96640.59
2022-11-04T15:07:35.031Z,96638.56
2022-11-04T15:10:39.217Z,96645.38
2022-11-04T15:13:48.732Z,96642.34
2022-11-04T15:16:54.556Z,96648.56
2022-11-04T15:20:01.514Z,96657.38
2022-11-04T15:23:08.129Z,96667.06
2022-11-04T15:26:28.119Z,96695.72
2022-11-04T15:29:32.601Z,96704.66
2022-11-04T15:32:35.436Z,96704.22
2022-11-04T15:35:43.434Z,96705.03
2022-11-04T15:38:50.586Z,96711.69
2022-11-04T15:42:16.742Z,96724.53
2022-11-04T15:45:29.212Z,96738.28
2022-11-04T15:48:37.820Z,96741.28
2022-11-04T15:51:42.730Z,96762.81
2022-11-04T15:54:48.665Z,96763.56
2022-11-04T15:57:54.129Z,96773.59
2022-11-04T16:00:57.849Z,96770.97
2022-11-04T16:04:02.904Z,96772.97
2022-11-04T16:07:22.585Z,96772.25
2022-11-04T16:10:31.361Z,96771.38
2022-11-04T16:13:35.652Z,96777.75
2022-11-04T16:16:38.651Z,96783.38
2022-11-04T16:19:41.659Z,96775.75
2022-11-04T16:22:45.573Z,96781.63
2022-11-04T16:25:55.547Z,96766.72
2022-11-04T16:29:01.968Z,96776.53
2022-11-04T16:32:15.903Z,96771.47
2022-11-04T16:35:22.775Z,96765.66
2022-11-04T16:38:25.763Z,96769.25
2022-11-04T16:41:30.891Z,96770.75
2022-11-04T16:44:35.173Z,96781.25
2022-11-04T16:47:40.892Z,96789.53
2022-11-04T16:50:43.845Z,96790.53
2022-11-04T16:53:50.324Z,96783.63
2022-11-04T16:56:54.506Z,96785.78
2022-11-04T16:59:58.970Z,96781.00
2022-11-04T17:03:05.268Z,96778.53
2022-11-04T17:06:08.889Z,96786.75
2022-11-04T17:09:21.485Z,96786.19
2022-11-04T17:12:24.740Z,96790.31
2022-11-04T17:15:29.200Z,96802.66
2022-11-04T17:18:33.566Z,96804.78
2022-11-04T17:21:36.758Z,96811.56
2022-11-04T17:24:39.829Z,96802.16
2022-11-04T17:27:42.780Z,96801.41
2022-11-04T17:30:47.297Z,96800.09
2022-11-04T17:33:50.341Z,96807.69
2022-11-04T17:36:53.456Z,96810.38
2022-11-04T17:39:56.792Z,96828.34
2022-11-04T17:43:17.318Z,96829.28
2022-11-04T17:46:38.224Z,96827.44
2022-11-04T17:49:45.525Z,96839.13
2022-11-04T17:52:49.444Z,96818.03
2022-11-04T17:55:52.559Z,96809.16
2022-11-04T17:58:55.470Z,96805.63
2022-11-04T18:02:00.061Z,96812.00
2022-11-04T18:05:03.670Z,96818.81
2022-11-04T18:08:06.609Z,96811.63
2022-11-04T18:11:12.434Z,96818.41
2022-11-04T18:14:17.404Z,96812.22
2022-11-04T18:17:24.652Z,96804.56
2022-11-04T18:20:27.743Z,96798.38
2022-11-04T18:23:30.709Z,96792.50
2022-11-04T18:26:34.248Z,96790.50
2022-11-04T18:29:37.289Z,96794.00
2022-11-04T18:32:41.555Z,96781.31
2022-11-04T18:35:44.534Z,96781.38
2022-11-04T18:38:47.993Z,96784.16
2022-11-04T18:41:50.982Z,96780.84
2022-11-04T18:44:54.668Z,96786.44
2022-11-04T18:47:59.041Z,96781.00
2022-11-04T18:51:02.961Z,96789.69
2022-11-04T18:54:07.612Z,96780.19
2022-11-04T18:57:12.042Z,96775.63
2022-11-04T19:00:17.231Z,96777.63
2022-11-04T19:03:23.477Z,96768.84
2022-11-04T19:06:28.180Z,96781.44
2022-11-04T19:09:47.696Z,96790.84
2022-11-04T19:13:08.206Z,96793.94
2022-11-04T19:16:13.039Z,96801.34
2022-11-04T19:19:17.428Z,96818.41
2022-11-04T19:22:20.354Z,96828.06
2022-11-04T19:25:23.420Z,96842.63
2022-11-04T19:28:40.435Z,96841.91
2022-11-04T19:31:48.327Z,96854.41
2022-11-04T19:34:52.629Z,96860.00
2022-11-04T19:37:56.056Z,96862.72
2022-11-04T19:41:03.990Z,96867.88
2022-11-04T19:44:08.550Z,96881.72
2022-11-04T19:47:11.456Z,96881.16
2022-11-04T19:50:15.873Z,96887.94
2022-11-04T19:53:19.084Z,96903.88
2022-11-04T19:56:22.736Z,96910.38
2022-11-04T19:59:25.909Z,96921.31
2022-11-04T20:02:28.879Z,96938.31
2022-11-04T20:05:37.837Z,96948.47
2022-11-04T20:08:41.940Z,96955.41
2022-11-04T20:11:58.778Z,96970.19
2022-11-04T20:15:01.821Z,96987.25
2022-11-04T20:18:05.122Z,96998.13
2022-11-04T20:21:09.420Z,97002.09
2022-11-04T20:24:13.920Z,97016.50
2022-11-04T20:27:16.845Z,97027.63
2022-11-04T20:30:19.926Z,97026.69
2022-11-04T20:33:22.789Z,97036.25
2022-11-04T20:36:28.717Z,97038.38
2022-11-04T20:39:31.798Z,97052.84
2022-11-04T20:42:34.679Z,97047.88
2022-11-04T20:45:37.643Z,97058.38
2022-11-04T20:48:41.011Z,97072.56
2022-11-04T20:51:54.431Z,97075.69
2022-11-04T20:54:58.290Z,97083.50
2022-11-04T20:58:01.156Z,97081.06
2022-11-04T21:01:06.046Z,97089.66
2022-11-04T21:04:11.511Z,97092.03
2022-11-04T21:07:17.790Z,97097.91
2022-11-04T21:10:20.637Z,97111.53
2022-11-04T21:13:23.988Z,97110.91
2022-11-04T21:16:26.997Z,97122.81
2022-11-04T21:19:29.956Z,97132.53
2022-11-04T21:22:35.162Z,97138.03
2022-11-04T21:25:43.270Z,97141.31
2022-11-04T21:28:46.165Z,97133.16
2022-11-04T21:31:49.980Z,97143.66
2022-11-04T21:34:52.843Z,97147.38
2022-11-04T21:37:57.399Z,97141.09
2022-11-04T21:41:04.146Z,97141.91
2022-11-04T21:44:09.442Z,97154.03
2022-11-04T21:47:12.550Z,97157.00
2022-11-04T21:50:18.155Z,97156.31
2022-11-04T21:53:22.595Z,97153.22
2022-11-04T21:56:27.703Z,97151.13
2022-11-04T21:59:32.374Z,97153.38
2022-11-04T22:02:38.688Z,97164.19
2022-11-04T22:05:41.852Z,97169.78
2022-11-04T22:08:49.280Z,97170.75
2022-11-04T22:11:52.666Z,97162.66
2022-11-04T22:14:55.589Z,97163.91
2022-11-04T22:17:58.501Z,97159.34
2022-11-04T22:21:05.049Z,97160.34
2022-11-04T22:24:11.049Z,97166.91
2022-11-04T22:27:13.963Z,97169.53
2022-11-04T22:30:16.890Z,97164.16
2022-11-04T22:33:19.708Z,97162.16
2022-11-04T22:36:23.310Z,97163.63
2022-11-04T22:39:27.761Z,97167.59
2022-11-04T22:42:30.639Z,97156.75
2022-11-04T22:45:33.551Z,97166.91
2022-11-04T22:48:37.571Z,97171.34
2022-11-04T22:51:40.416Z,97157.13
2022-11-04T22:54:44.650Z,97164.13
2022-11-04T22:57:47.547Z,97164.63
2022-11-04T23:00:56.457Z,97163.63
2022-11-04T23:03:59.360Z,97163.78
2022-11-04T23:07:02.315Z,97156.91
2022-11-04T23:10:25.097Z,97144.88
2022-11-04T23:13:45.508Z,97142.38
2022-11-04T23:17:07.772Z,97132.91
2022-11-04T23:20:13.288Z,97127.03
2022-11-04T23:23:33.618Z,97125.09
2022-11-04T23:26:37.946Z,97114.34
2022-11-04T23:30:06.461Z,97109.25
2022-11-04T23:33:11.801Z,97113.75
2022-11-04T23:36:32.128Z,97115.50
2022-11-04T23:39:35.045Z,97130.75
2022-11-04T23:42:39.208Z,97133.81
2022-11-04T23:45:59.531Z,97142.34
2022-11-04T23:49:22.448Z,97140.91
2022-11-04T23:52:42.808Z,97134.84
2022-11-04T23:56:03.019Z,97145.94
2022-11-04T23:59:27.404Z,97138.56
